Time;durP1;ratioP1;P1;durP2;ratioP2;P2;SDS_P1;SDS_P2;PMS_P1;PMS_P2;Temp;Humidity;BMP_temperature;BMP_pressure;BME280_temperature;BME280_humidity;BME280_pressure;Samples;Min_cycle;Max_cycle;Signal;HPM_P1;HPM_P2
2022/07/14 00:00:53;;;;;;;3.70;2.17;;;;;;;;;;764864;181;922350;-65
2022/07/14 00:03:18;;;;;;;3.30;2.00;;;;;;;;;;770313;179;920269;-66
2022/07/14 00:05:44;;;;;;;3.03;2.10;;;;;;;;;;766996;179;920841;-65
2022/07/14 00:08:10;;;;;;;4.07;2.67;;;;;;;;;;768291;179;847381;-65
2022/07/14 00:10:36;;;;;;;4.30;2.37;;;;;;;;;;770118;181;915859;-65
2022/07/14 00:13:02;;;;;;;3.58;2.20;;;;;;;;;;767888;179;919236;-65
2022/07/14 00:15:28;;;;;;;3.43;2.33;;;;;;;;;;767277;179;915807;-65
2022/07/14 00:17:55;;;;;;;3.17;2.30;;;;;;;;;;769855;179;849285;-65
2022/07/14 00:20:19;;;;;;;4.90;2.53;;;;;;;;;;765145;179;922063;-65
2022/07/14 00:22:45;;;;;;;5.50;2.30;;;;;;;;;;764238;179;918873;-66
2022/07/14 00:25:11;;;;;;;3.73;2.30;;;;;;;;;;761828;182;920440;-64
2022/07/14 00:27:37;;;;;;;6.00;3.10;;;;;;;;;;773370;181;914741;-65
2022/07/14 00:30:03;;;;;;;3.63;2.27;;;;;;;;;;765580;179;913573;-64
2022/07/14 00:32:29;;;;;;;3.58;2.00;;;;;;;;;;768620;180;918733;-65
2022/07/14 00:34:55;;;;;;;4.50;2.57;;;;;;;;;;775464;181;918344;-64
2022/07/14 00:37:20;;;;;;;5.97;2.43;;;;;;;;;;770868;180;937970;-64
2022/07/14 00:42:24;;;;;;;3.30;2.40;;;;;;;;;;766716;180;918825;-66
2022/07/14 00:44:50;;;;;;;4.00;1.90;;;;;;;;;;762004;181;915938;-64
2022/07/14 00:47:16;;;;;;;3.93;2.50;;;;;;;;;;765785;181;886153;-64
2022/07/14 00:49:41;;;;;;;6.60;2.80;;;;;;;;;;767733;182;816459;-65
2022/07/14 00:52:07;;;;;;;4.00;2.57;;;;;;;;;;773516;181;737449;-65
2022/07/14 00:54:33;;;;;;;3.50;2.30;;;;;;;;;;767737;179;918600;-64
2022/07/14 00:56:59;;;;;;;4.07;2.60;;;;;;;;;;769542;179;913111;-64
2022/07/14 00:59:25;;;;;;;3.67;2.60;;;;;;;;;;768034;180;915738;-64
2022/07/14 01:01:51;;;;;;;3.40;2.40;;;;;;;;;;765035;181;816045;-64
2022/07/14 01:04:16;;;;;;;5.53;2.73;;;;;;;;;;768702;180;917883;-64
2022/07/14 01:06:42;;;;;;;6.57;2.67;;;;;;;;;;767525;180;917856;-64
2022/07/14 01:09:08;;;;;;;4.33;2.90;;;;;;;;;;772554;180;887890;-64
2022/07/14 01:11:34;;;;;;;4.33;2.83;;;;;;;;;;768680;180;881000;-64
2022/07/14 01:14:03;;;;;;;3.10;2.23;;;;;;;;;;765964;182;949786;-64
2022/07/14 01:16:26;;;;;;;3.27;2.20;;;;;;;;;;771422;180;918830;-65
2022/07/14 01:18:52;;;;;;;5.13;3.00;;;;;;;;;;768005;180;919451;-65
2022/07/14 01:21:17;;;;;;;3.80;2.90;;;;;;;;;;766695;180;1039085;-63
2022/07/14 01:23:43;;;;;;;3.73;2.43;;;;;;;;;;774071;179;922255;-65
2022/07/14 01:26:09;;;;;;;3.67;2.27;;;;;;;;;;767791;179;918423;-64
2022/07/14 01:28:35;;;;;;;3.20;2.50;;;;;;;;;;766605;180;918910;-65
2022/07/14 01:31:01;;;;;;;4.00;3.07;;;;;;;;;;769117;179;918471;-62
2022/07/14 01:33:27;;;;;;;4.07;2.63;;;;;;;;;;770559;181;918574;-64
2022/07/14 01:35:52;;;;;;;3.40;2.63;;;;;;;;;;769809;180;913626;-64
2022/07/14 01:38:18;;;;;;;3.30;2.30;;;;;;;;;;764193;179;918880;-64
2022/07/14 01:40:45;;;;;;;3.80;2.67;;;;;;;;;;772522;180;918800;-64
2022/07/14 01:43:10;;;;;;;3.90;2.80;;;;;;;;;;767791;179;928174;-64
2022/07/14 01:45:36;;;;;;;3.13;2.20;;;;;;;;;;770510;178;919388;-64
2022/07/14 01:48:02;;;;;;;3.20;2.20;;;;;;;;;;773348;180;920385;-63
2022/07/14 01:50:27;;;;;;;5.60;2.50;;;;;;;;;;767493;178;919162;-63
2022/07/14 01:52:54;;;;;;;4.07;2.33;;;;;;;;;;766392;180;918393;-63
2022/07/14 01:55:19;;;;;;;6.10;2.63;;;;;;;;;;768115;179;915292;-65
2022/07/14 01:57:45;;;;;;;5.20;2.43;;;;;;;;;;770969;180;996741;-64
2022/07/14 02:00:11;;;;;;;3.90;2.83;;;;;;;;;;767964;180;919077;-65
2022/07/14 02:02:37;;;;;;;9.37;2.80;;;;;;;;;;762481;179;1124105;-63
2022/07/14 02:05:03;;;;;;;5.53;2.60;;;;;;;;;;774433;181;816377;-62
2022/07/14 02:07:29;;;;;;;6.00;2.80;;;;;;;;;;770630;179;917556;-63
2022/07/14 02:12:26;;;;;;;4.77;3.33;;;;;;;;;;765702;180;914650;-63
2022/07/14 02:14:52;;;;;;;3.33;2.50;;;;;;;;;;770410;180;854158;-64
2022/07/14 02:17:18;;;;;;;3.55;2.55;;;;;;;;;;767956;181;911213;-64
2022/07/14 02:19:44;;;;;;;3.63;2.47;;;;;;;;;;765820;182;914867;-64
2022/07/14 02:22:09;;;;;;;7.07;3.30;;;;;;;;;;769404;179;907877;-64
2022/07/14 02:24:35;;;;;;;4.10;2.77;;;;;;;;;;766913;179;889922;-64
2022/07/14 02:27:01;;;;;;;3.93;2.73;;;;;;;;;;767982;180;918139;-64
2022/07/14 02:29:27;;;;;;;4.37;2.60;;;;;;;;;;770530;180;942674;-64
2022/07/14 02:31:53;;;;;;;4.00;3.07;;;;;;;;;;768235;180;915932;-64
2022/07/14 02:34:19;;;;;;;3.23;2.40;;;;;;;;;;767850;180;924107;-63
2022/07/14 02:36:45;;;;;;;6.20;3.60;;;;;;;;;;770494;182;817466;-62
2022/07/14 02:39:10;;;;;;;4.23;2.80;;;;;;;;;;765635;179;813479;-63
2022/07/14 02:41:36;;;;;;;4.13;2.87;;;;;;;;;;768363;180;920193;-64
2022/07/14 02:44:02;;;;;;;3.50;2.37;;;;;;;;;;767975;180;917460;-64
2022/07/14 02:46:28;;;;;;;5.20;2.77;;;;;;;;;;771053;181;921344;-63
2022/07/14 02:48:54;;;;;;;4.37;2.83;;;;;;;;;;767067;179;820838;-64
2022/07/14 02:51:20;;;;;;;7.73;2.80;;;;;;;;;;765075;179;918331;-63
2022/07/14 02:53:45;;;;;;;5.40;2.70;;;;;;;;;;772657;179;816523;-62
2022/07/14 02:56:12;;;;;;;3.50;2.50;;;;;;;;;;774838;180;824828;-64
2022/07/14 02:58:37;;;;;;;6.13;2.90;;;;;;;;;;768984;179;919660;-63
2022/07/14 03:01:05;;;;;;;3.70;2.37;;;;;;;;;;771779;180;918401;-63
2022/07/14 03:03:30;;;;;;;3.87;2.60;;;;;;;;;;768119;182;817278;-63
2022/07/14 03:05:56;;;;;;;3.37;2.40;;;;;;;;;;766385;180;910199;-63
2022/07/14 03:08:21;;;;;;;5.30;3.17;;;;;;;;;;769056;180;908194;-63
2022/07/14 03:10:49;;;;;;;4.60;3.10;;;;;;;;;;774488;180;910265;-61
2022/07/14 03:13:13;;;;;;;4.13;2.80;;;;;;;;;;771751;179;918918;-61
2022/07/14 03:15:39;;;;;;;4.63;2.87;;;;;;;;;;766760;179;916201;-62
2022/07/14 03:18:05;;;;;;;4.50;2.90;;;;;;;;;;772756;180;919454;-61
2022/07/14 03:20:31;;;;;;;3.78;2.40;;;;;;;;;;768736;180;916362;-61
2022/07/14 03:22:56;;;;;;;4.57;2.75;;;;;;;;;;769605;179;918390;-62
2022/07/14 03:25:22;;;;;;;8.17;3.27;;;;;;;;;;772559;180;919099;-61
2022/07/14 03:27:48;;;;;;;3.57;2.80;;;;;;;;;;767959;181;919810;-60
2022/07/14 03:30:14;;;;;;;3.43;2.40;;;;;;;;;;763605;179;917254;-61
2022/07/14 03:32:40;;;;;;;3.05;2.25;;;;;;;;;;764017;179;921726;-61
2022/07/14 03:35:07;;;;;;;4.20;2.90;;;;;;;;;;773645;180;918148;-62
2022/07/14 03:37:32;;;;;;;6.90;2.73;;;;;;;;;;768596;179;626898;-62
2022/07/14 03:39:58;;;;;;;3.63;3.03;;;;;;;;;;766222;179;918361;-61
2022/07/14 03:42:23;;;;;;;4.90;3.00;;;;;;;;;;771520;179;918795;-62
2022/07/14 03:44:49;;;;;;;6.40;3.70;;;;;;;;;;765796;180;1005143;-61
2022/07/14 03:47:15;;;;;;;4.73;2.90;;;;;;;;;;770203;180;816570;-61
2022/07/14 03:49:41;;;;;;;3.80;2.70;;;;;;;;;;774121;179;917452;-61
2022/07/14 03:52:07;;;;;;;4.43;2.78;;;;;;;;;;766487;179;911623;-61
2022/07/14 03:54:33;;;;;;;5.00;3.00;;;;;;;;;;766967;179;919561;-61
2022/07/14 03:56:59;;;;;;;4.33;2.70;;;;;;;;;;772243;180;918601;-64
2022/07/14 03:59:24;;;;;;;5.57;3.70;;;;;;;;;;764849;179;916033;-61
2022/07/14 04:01:50;;;;;;;7.17;3.30;;;;;;;;;;763233;179;919174;-61
2022/07/14 04:04:16;;;;;;;3.80;3.07;;;;;;;;;;765358;180;918227;-61
2022/07/14 04:06:42;;;;;;;3.63;2.27;;;;;;;;;;777104;178;919453;-61
2022/07/14 04:09:08;;;;;;;5.77;2.70;;;;;;;;;;769619;178;920657;-61
2022/07/14 04:11:34;;;;;;;4.53;2.83;;;;;;;;;;767569;178;884532;-61
2022/07/14 04:13:59;;;;;;;4.23;3.17;;;;;;;;;;774448;181;919353;-61
2022/07/14 04:16:25;;;;;;;4.57;2.80;;;;;;;;;;769733;179;917339;-61
2022/07/14 04:18:52;;;;;;;6.03;3.07;;;;;;;;;;770253;180;918267;-59
2022/07/14 04:21:17;;;;;;;5.20;2.87;;;;;;;;;;769430;181;919130;-61
2022/07/14 04:23:43;;;;;;;4.13;2.80;;;;;;;;;;765600;178;911706;-61
2022/07/14 04:26:09;;;;;;;5.13;2.83;;;;;;;;;;767201;180;919602;-60
2022/07/14 04:28:35;;;;;;;3.50;2.43;;;;;;;;;;768320;180;918024;-60
2022/07/14 04:31:00;;;;;;;6.10;3.00;;;;;;;;;;775250;180;919602;-61
2022/07/14 04:33:26;;;;;;;8.43;2.93;;;;;;;;;;766162;180;918753;-61
2022/07/14 04:35:52;;;;;;;5.32;2.55;;;;;;;;;;770718;180;916841;-60
2022/07/14 04:38:18;;;;;;;4.10;2.80;;;;;;;;;;773346;180;917583;-60
2022/07/14 04:40:46;;;;;;;4.80;2.73;;;;;;;;;;769951;180;919078;-60
2022/07/14 04:43:12;;;;;;;6.35;2.72;;;;;;;;;;764924;179;939866;-61
2022/07/14 04:45:37;;;;;;;4.23;2.20;;;;;;;;;;768631;179;1017775;-61
2022/07/14 04:48:03;;;;;;;6.33;2.90;;;;;;;;;;767113;179;927602;-61
2022/07/14 04:53:01;;;;;;;5.97;2.90;;;;;;;;;;766906;180;920057;-60
2022/07/14 04:55:27;;;;;;;5.03;3.07;;;;;;;;;;771320;180;817911;-60
2022/07/14 04:57:53;;;;;;;4.70;2.93;;;;;;;;;;765744;179;815713;-59
2022/07/14 05:00:18;;;;;;;5.63;3.20;;;;;;;;;;762654;179;1430503;-60
2022/07/14 05:02:44;;;;;;;5.60;3.50;;;;;;;;;;772590;179;812740;-60
2022/07/14 05:05:10;;;;;;;4.20;2.70;;;;;;;;;;767151;179;914563;-60
2022/07/14 05:07:36;;;;;;;14.83;2.80;;;;;;;;;;767179;181;818307;-60
2022/07/14 05:10:02;;;;;;;5.67;2.60;;;;;;;;;;767227;181;818706;-61
2022/07/14 05:12:28;;;;;;;7.30;3.13;;;;;;;;;;768003;180;816172;-60
2022/07/14 05:14:53;;;;;;;7.53;3.67;;;;;;;;;;764822;180;917670;-60
2022/07/14 05:17:19;;;;;;;8.93;2.90;;;;;;;;;;766773;180;917858;-61
2022/07/14 05:19:46;;;;;;;4.43;3.00;;;;;;;;;;773850;178;910808;-60
2022/07/14 05:22:12;;;;;;;4.43;2.57;;;;;;;;;;768428;178;913447;-60
2022/07/14 05:24:38;;;;;;;4.23;3.10;;;;;;;;;;768978;179;910954;-61
2022/07/14 05:27:04;;;;;;;4.30;2.87;;;;;;;;;;769756;179;1022624;-60
2022/07/14 05:29:30;;;;;;;4.77;2.83;;;;;;;;;;770899;180;816558;-60
2022/07/14 05:31:55;;;;;;;7.43;3.53;;;;;;;;;;768477;179;917404;-61
2022/07/14 05:34:22;;;;;;;4.90;3.50;;;;;;;;;;769173;180;918922;-60
2022/07/14 05:36:48;;;;;;;10.20;2.73;;;;;;;;;;772978;180;1021238;-59
2022/07/14 05:39:13;;;;;;;4.90;3.07;;;;;;;;;;765013;179;819104;-59
2022/07/14 05:41:39;;;;;;;4.47;2.80;;;;;;;;;;767410;180;817594;-60
2022/07/14 05:44:05;;;;;;;5.67;2.60;;;;;;;;;;769324;179;904845;-61
2022/07/14 05:46:31;;;;;;;3.50;2.53;;;;;;;;;;766126;180;920016;-61
2022/07/14 05:48:57;;;;;;;3.70;2.97;;;;;;;;;;770243;179;699055;-62
2022/07/14 05:51:23;;;;;;;4.63;2.57;;;;;;;;;;775896;179;616347;-61
2022/07/14 05:53:48;;;;;;;6.50;2.40;;;;;;;;;;768027;180;917937;-60
2022/07/14 05:56:17;;;;;;;12.35;2.92;;;;;;;;;;767832;179;919317;-60
2022/07/14 05:58:43;;;;;;;7.50;2.50;;;;;;;;;;764834;179;883430;-62
2022/07/14 06:01:09;;;;;;;5.13;2.70;;;;;;;;;;775367;181;817019;-61
2022/07/14 06:03:35;;;;;;;3.93;2.60;;;;;;;;;;769929;180;628107;-61
2022/07/14 06:06:01;;;;;;;4.10;2.83;;;;;;;;;;769303;180;627005;-63
2022/07/14 06:08:28;;;;;;;5.30;2.50;;;;;;;;;;775853;180;625438;-62
2022/07/14 06:10:55;;;;;;;4.63;2.13;;;;;;;;;;772388;180;617107;-62
2022/07/14 06:13:19;;;;;;;8.67;3.37;;;;;;;;;;771042;181;699319;-62
2022/07/14 06:15:45;;;;;;;3.47;2.60;;;;;;;;;;776368;180;627364;-60
2022/07/14 06:18:11;;;;;;;3.53;2.50;;;;;;;;;;770803;180;817205;-62
2022/07/14 06:20:36;;;;;;;3.07;2.10;;;;;;;;;;767143;179;919734;-62
2022/07/14 06:23:02;;;;;;;5.72;2.60;;;;;;;;;;768743;180;920671;-63
2022/07/14 06:25:28;;;;;;;3.17;2.37;;;;;;;;;;770988;181;927979;-63
2022/07/14 06:27:54;;;;;;;4.03;2.30;;;;;;;;;;767011;180;816937;-62
2022/07/14 06:30:20;;;;;;;3.42;2.53;;;;;;;;;;769191;180;817296;-62
2022/07/14 06:32:46;;;;;;;3.73;2.17;;;;;;;;;;775930;181;719679;-62
2022/07/14 06:35:12;;;;;;;3.30;2.33;;;;;;;;;;769074;181;917233;-63
2022/07/14 06:37:38;;;;;;;5.90;2.80;;;;;;;;;;765671;179;918986;-62
2022/07/14 06:40:05;;;;;;;3.37;2.10;;;;;;;;;;768991;180;817530;-63
2022/07/14 06:42:30;;;;;;;5.03;2.87;;;;;;;;;;765573;180;919519;-63
2022/07/14 06:44:56;;;;;;;4.07;2.47;;;;;;;;;;770898;179;917526;-63
2022/07/14 06:47:22;;;;;;;3.80;3.23;;;;;;;;;;770777;179;917959;-63
2022/07/14 06:49:47;;;;;;;3.80;2.93;;;;;;;;;;766137;181;918380;-64
2022/07/14 06:52:13;;;;;;;4.12;2.35;;;;;;;;;;766268;181;850392;-64
2022/07/14 06:54:39;;;;;;;3.90;2.10;;;;;;;;;;766718;181;920132;-65
2022/07/14 06:57:05;;;;;;;4.60;2.90;;;;;;;;;;772875;181;918896;-64
2022/07/14 06:59:31;;;;;;;4.63;2.53;;;;;;;;;;765273;178;921743;-64
2022/07/14 07:01:57;;;;;;;5.80;2.57;;;;;;;;;;769378;180;921111;-63
2022/07/14 07:04:23;;;;;;;3.60;2.47;;;;;;;;;;770922;179;819720;-63
2022/07/14 07:06:50;;;;;;;4.60;2.87;;;;;;;;;;767974;179;950013;-64
2022/07/14 07:09:15;;;;;;;3.67;2.50;;;;;;;;;;764915;179;918977;-66
2022/07/14 07:11:41;;;;;;;5.87;3.00;;;;;;;;;;771709;180;914291;-64
2022/07/14 07:14:06;;;;;;;3.60;2.20;;;;;;;;;;765916;179;912692;-65
2022/07/14 07:16:32;;;;;;;4.13;2.67;;;;;;;;;;764983;179;915043;-65
2022/07/14 07:18:58;;;;;;;5.83;3.20;;;;;;;;;;765572;181;916012;-65
2022/07/14 07:21:24;;;;;;;3.33;2.63;;;;;;;;;;768117;180;928337;-66
2022/07/14 07:23:50;;;;;;;3.83;3.00;;;;;;;;;;766022;179;918946;-65
2022/07/14 07:26:16;;;;;;;7.00;2.90;;;;;;;;;;764668;179;1021240;-66
2022/07/14 07:28:42;;;;;;;5.00;2.80;;;;;;;;;;771152;180;819767;-65
2022/07/14 07:31:07;;;;;;;4.83;2.43;;;;;;;;;;766339;179;919659;-66
2022/07/14 07:33:33;;;;;;;3.00;2.47;;;;;;;;;;768146;179;918741;-66
2022/07/14 07:35:59;;;;;;;4.10;2.97;;;;;;;;;;770644;179;867303;-66
2022/07/14 07:38:25;;;;;;;4.10;2.80;;;;;;;;;;764807;179;856928;-66
2022/07/14 07:40:53;;;;;;;12.90;2.47;;;;;;;;;;768096;180;915520;-67
2022/07/14 07:43:20;;;;;;;7.80;3.10;;;;;;;;;;772437;180;632648;-66
2022/07/14 07:45:43;;;;;;;4.50;2.43;;;;;;;;;;778214;180;618772;-66
2022/07/14 07:48:09;;;;;;;5.57;2.63;;;;;;;;;;771477;180;628198;-67
2022/07/14 07:50:35;;;;;;;4.70;2.80;;;;;;;;;;770218;181;632576;-65
2022/07/14 07:53:01;;;;;;;6.60;2.60;;;;;;;;;;773140;180;918323;-68
2022/07/14 07:55:27;;;;;;;3.33;2.40;;;;;;;;;;766001;179;918470;-66
2022/07/14 07:57:53;;;;;;;4.00;2.77;;;;;;;;;;770096;178;816076;-67
2022/07/14 08:00:20;;;;;;;4.27;2.40;;;;;;;;;;771559;180;918485;-67
2022/07/14 08:02:48;;;;;;;4.17;2.27;;;;;;;;;;772091;180;809228;-67
2022/07/14 08:05:15;;;;;;;4.53;2.90;;;;;;;;;;767746;179;919354;-67
2022/07/14 08:07:41;;;;;;;3.47;2.60;;;;;;;;;;772155;180;625072;-66
2022/07/14 08:10:07;;;;;;;9.20;3.07;;;;;;;;;;775984;180;612349;-67
2022/07/14 08:12:33;;;;;;;6.97;3.03;;;;;;;;;;769708;180;630413;-67
2022/07/14 08:14:58;;;;;;;5.50;3.30;;;;;;;;;;770939;180;639319;-67
2022/07/14 08:17:24;;;;;;;4.83;2.60;;;;;;;;;;771612;181;620555;-68
2022/07/14 08:19:50;;;;;;;3.20;2.40;;;;;;;;;;768914;179;881635;-66
2022/07/14 08:22:21;;;;;;;2.97;2.00;;;;;;;;;;765745;181;919516;-66
2022/07/14 08:24:47;;;;;;;3.50;2.77;;;;;;;;;;766168;180;918493;-66
2022/07/14 08:27:13;;;;;;;5.17;2.43;;;;;;;;;;762404;181;918913;-66
2022/07/14 08:29:38;;;;;;;3.90;2.67;;;;;;;;;;767032;179;916642;-70
2022/07/14 08:32:05;;;;;;;6.60;2.70;;;;;;;;;;764850;179;918752;-66
2022/07/14 08:34:31;;;;;;;6.13;3.07;;;;;;;;;;772544;181;820308;-67
2022/07/14 08:36:58;;;;;;;3.37;2.50;;;;;;;;;;767528;180;918383;-66
2022/07/14 08:39:22;;;;;;;6.80;2.70;;;;;;;;;;767910;179;917808;-67
2022/07/14 08:41:48;;;;;;;4.73;2.73;;;;;;;;;;770801;179;845304;-66
2022/07/14 08:44:14;;;;;;;6.70;2.63;;;;;;;;;;771225;180;944833;-67
2022/07/14 08:46:40;;;;;;;4.47;2.55;;;;;;;;;;767014;179;1120382;-67
2022/07/14 08:49:06;;;;;;;5.23;2.90;;;;;;;;;;768524;180;942490;-67
2022/07/14 08:51:31;;;;;;;6.00;2.43;;;;;;;;;;773310;180;857068;-68
2022/07/14 08:53:57;;;;;;;4.03;2.30;;;;;;;;;;771826;180;919108;-67
2022/07/14 08:56:23;;;;;;;3.10;2.37;;;;;;;;;;765441;180;918845;-66
2022/07/14 08:58:49;;;;;;;4.53;2.13;;;;;;;;;;773344;180;817825;-67
2022/07/14 09:01:15;;;;;;;4.23;2.27;;;;;;;;;;760960;179;921020;-68
2022/07/14 09:03:41;;;;;;;5.50;2.40;;;;;;;;;;767156;178;930140;-66
2022/07/14 09:06:07;;;;;;;6.73;2.77;;;;;;;;;;777549;180;812187;-66
2022/07/14 09:08:38;;;;;;;7.40;2.30;;;;;;;;;;770175;178;818312;-66
2022/07/14 09:11:04;;;;;;;8.80;2.40;;;;;;;;;;769814;178;916049;-65
2022/07/14 09:13:31;;;;;;;6.77;2.73;;;;;;;;;;768041;179;918247;-66
2022/07/14 09:16:03;;;;;;;7.10;3.30;;;;;;;;;;775457;179;630151;-64
2022/07/14 09:18:28;;;;;;;19.97;3.60;;;;;;;;;;769196;181;627290;-65
2022/07/14 09:20:54;;;;;;;4.53;2.70;;;;;;;;;;764547;181;918273;-64
2022/07/14 09:23:27;;;;;;;9.73;2.77;;;;;;;;;;769549;180;919311;-66
2022/07/14 09:25:52;;;;;;;3.53;2.63;;;;;;;;;;772595;181;916197;-65
2022/07/14 09:28:18;;;;;;;4.90;2.47;;;;;;;;;;770147;179;641829;-66
2022/07/14 09:30:44;;;;;;;4.63;2.57;;;;;;;;;;768408;179;827759;-64
2022/07/14 09:33:10;;;;;;;5.07;2.57;;;;;;;;;;771536;181;918790;-66
2022/07/14 09:35:39;;;;;;;6.30;3.17;;;;;;;;;;769576;180;816187;-67
2022/07/14 09:38:17;;;;;;;9.33;2.50;;;;;;;;;;767551;180;820870;-65
2022/07/14 09:40:42;;;;;;;5.83;3.03;;;;;;;;;;768231;180;917164;-68
2022/07/14 09:43:09;;;;;;;7.30;2.97;;;;;;;;;;771141;179;907614;-66
2022/07/14 09:45:34;;;;;;;6.43;2.70;;;;;;;;;;767902;179;915143;-66
2022/07/14 09:48:04;;;;;;;6.50;2.20;;;;;;;;;;770701;180;632172;-67
2022/07/14 09:50:34;;;;;;;6.53;2.70;;;;;;;;;;766793;179;920879;-67
2022/07/14 09:53:02;;;;;;;3.00;2.23;;;;;;;;;;769222;179;912607;-67
2022/07/14 09:55:29;;;;;;;3.67;2.67;;;;;;;;;;768834;180;920248;-67
2022/07/14 09:57:56;;;;;;;3.83;2.53;;;;;;;;;;765314;181;815539;-67
2022/07/14 10:00:22;;;;;;;3.17;2.30;;;;;;;;;;764537;179;918845;-66
2022/07/14 10:02:52;;;;;;;6.70;2.73;;;;;;;;;;773108;179;913320;-66
2022/07/14 10:05:16;;;;;;;4.80;2.60;;;;;;;;;;769417;179;919403;-68
2022/07/14 10:07:44;;;;;;;4.20;2.63;;;;;;;;;;771619;180;915426;-67
2022/07/14 10:10:10;;;;;;;6.50;3.00;;;;;;;;;;772150;180;919021;-67
2022/07/14 10:12:36;;;;;;;4.57;2.80;;;;;;;;;;769806;178;918599;-67
2022/07/14 10:15:03;;;;;;;5.37;2.50;;;;;;;;;;770689;179;816524;-66
2022/07/14 10:17:29;;;;;;;5.27;2.70;;;;;;;;;;767551;180;918875;-70
2022/07/14 10:19:55;;;;;;;7.70;3.37;;;;;;;;;;768617;181;799954;-70
2022/07/14 10:22:21;;;;;;;7.27;2.83;;;;;;;;;;767536;179;919039;-67
2022/07/14 10:24:47;;;;;;;3.97;2.50;;;;;;;;;;765481;180;915890;-69
2022/07/14 10:27:12;;;;;;;10.07;2.83;;;;;;;;;;771951;179;914716;-72
2022/07/14 10:29:38;;;;;;;4.60;2.40;;;;;;;;;;767318;179;918025;-74
2022/07/14 10:32:05;;;;;;;3.97;2.70;;;;;;;;;;766732;178;908001;-75
2022/07/14 10:34:36;;;;;;;3.33;2.23;;;;;;;;;;770085;181;922397;-69
2022/07/14 10:37:03;;;;;;;4.83;2.80;;;;;;;;;;765854;181;907367;-67
2022/07/14 10:39:35;;;;;;;5.53;2.60;;;;;;;;;;765618;180;918303;-74
2022/07/14 10:42:04;;;;;;;6.63;3.00;;;;;;;;;;765598;180;918165;-68
2022/07/14 10:44:29;;;;;;;4.87;2.90;;;;;;;;;;771190;181;891603;-68
2022/07/14 10:47:06;;;;;;;3.77;2.60;;;;;;;;;;768749;180;923453;-70
2022/07/14 10:49:32;;;;;;;5.47;2.37;;;;;;;;;;765024;179;941801;-73
2022/07/14 10:51:58;;;;;;;3.97;2.33;;;;;;;;;;763954;179;860675;-78
2022/07/14 10:54:24;;;;;;;6.07;2.63;;;;;;;;;;771044;181;820549;-69
2022/07/14 10:56:49;;;;;;;6.63;2.90;;;;;;;;;;769863;179;727893;-80
2022/07/14 10:59:21;;;;;;;7.13;2.80;;;;;;;;;;766963;179;945535;-70
2022/07/14 11:01:53;;;;;;;7.30;2.50;;;;;;;;;;766885;179;920354;-70
2022/07/14 11:04:19;;;;;;;6.10;2.20;;;;;;;;;;771145;179;816294;-73
2022/07/14 11:06:44;;;;;;;4.37;2.23;;;;;;;;;;765069;181;919564;-73
2022/07/14 11:09:29;;;;;;;4.10;2.07;;;;;;;;;;766224;179;918733;-67
2022/07/14 11:12:09;;;;;;;5.07;2.47;;;;;;;;;;758122;180;817489;-75
2022/07/14 11:14:40;;;;;;;6.43;3.70;;;;;;;;;;763772;179;909519;-76
2022/07/14 11:17:04;;;;;;;5.17;2.07;;;;;;;;;;767275;181;938990;-74
2022/07/14 11:19:32;;;;;;;5.43;2.83;;;;;;;;;;773385;178;921217;-68
2022/07/14 11:22:04;;;;;;;3.10;2.00;;;;;;;;;;767967;179;923993;-73
2022/07/14 11:24:32;;;;;;;4.70;2.30;;;;;;;;;;766429;178;915931;-70
2022/07/14 11:26:58;;;;;;;9.03;2.23;;;;;;;;;;765723;178;914395;-69
2022/07/14 11:29:29;;;;;;;7.33;2.43;;;;;;;;;;768294;179;914767;-72
2022/07/14 11:31:55;;;;;;;6.10;2.57;;;;;;;;;;767368;179;816832;-68
2022/07/14 11:37:00;;;;;;;5.17;3.40;;;;;;;;;;768895;180;827749;-71
2022/07/14 11:39:34;;;;;;;4.50;2.57;;;;;;;;;;770103;181;919257;-67
2022/07/14 11:42:02;;;;;;;3.83;2.60;;;;;;;;;;772325;181;817619;-72
2022/07/14 11:44:49;;;;;;;5.30;2.97;;;;;;;;;;767836;180;915318;-74
2022/07/14 11:47:17;;;;;;;6.40;2.40;;;;;;;;;;765439;179;919960;-75
2022/07/14 11:49:43;;;;;;;5.07;2.27;;;;;;;;;;766509;180;918965;-68
2022/07/14 11:52:11;;;;;;;4.43;2.30;;;;;;;;;;764185;180;918291;-74
2022/07/14 11:54:37;;;;;;;7.40;2.07;;;;;;;;;;775730;180;811137;-72
2022/07/14 11:57:06;;;;;;;4.60;2.20;;;;;;;;;;770172;180;816735;-70
2022/07/14 11:59:32;;;;;;;4.10;1.97;;;;;;;;;;767373;180;916161;-71
2022/07/14 12:02:08;;;;;;;5.17;2.60;;;;;;;;;;771338;181;918229;-67
2022/07/14 12:04:34;;;;;;;5.83;2.03;;;;;;;;;;763076;181;918046;-73
2022/07/14 12:07:00;;;;;;;7.70;2.50;;;;;;;;;;763188;179;919507;-73
2022/07/14 12:09:26;;;;;;;5.65;2.40;;;;;;;;;;765581;179;917202;-65
2022/07/14 12:11:52;;;;;;;6.33;2.20;;;;;;;;;;769457;180;918467;-65
2022/07/14 12:14:18;;;;;;;14.63;2.40;;;;;;;;;;768871;179;912693;-74
2022/07/14 12:16:44;;;;;;;7.13;2.63;;;;;;;;;;765652;180;917815;-75
2022/07/14 12:19:11;;;;;;;8.27;2.43;;;;;;;;;;766211;181;923069;-65
2022/07/14 12:21:35;;;;;;;4.67;2.27;;;;;;;;;;766908;180;818099;-61
2022/07/14 12:24:01;;;;;;;5.73;2.40;;;;;;;;;;765631;180;920634;-78
2022/07/14 12:26:27;;;;;;;3.87;2.20;;;;;;;;;;765725;180;919113;-64
2022/07/14 12:28:54;;;;;;;4.83;2.57;;;;;;;;;;775846;178;919801;-62
2022/07/14 12:31:21;;;;;;;3.73;2.23;;;;;;;;;;770718;181;823342;-71
2022/07/14 12:33:46;;;;;;;5.80;2.50;;;;;;;;;;770665;181;828574;-71
2022/07/14 12:36:12;;;;;;;6.77;2.43;;;;;;;;;;772459;179;816152;-64
2022/07/14 12:38:38;;;;;;;4.47;2.50;;;;;;;;;;772220;179;813645;-67
2022/07/14 12:41:03;;;;;;;4.13;3.00;;;;;;;;;;766314;179;917949;-66
2022/07/14 12:43:31;;;;;;;3.97;2.80;;;;;;;;;;771859;178;895714;-62
2022/07/14 12:46:00;;;;;;;3.93;2.43;;;;;;;;;;773286;181;918524;-70
2022/07/14 12:48:27;;;;;;;3.50;2.00;;;;;;;;;;768123;181;918893;-64
2022/07/14 12:50:51;;;;;;;4.20;2.37;;;;;;;;;;765717;181;919056;-59
2022/07/14 12:53:17;;;;;;;6.43;2.63;;;;;;;;;;772033;180;918711;-63
2022/07/14 12:55:44;;;;;;;2.70;1.80;;;;;;;;;;770611;179;705615;-67
2022/07/14 12:58:09;;;;;;;4.40;2.27;;;;;;;;;;770314;179;635235;-65
2022/07/14 13:00:35;;;;;;;4.10;2.00;;;;;;;;;;772136;181;914122;-65
2022/07/14 13:03:07;;;;;;;4.73;2.40;;;;;;;;;;770392;179;815676;-69
2022/07/14 13:05:33;;;;;;;3.40;2.13;;;;;;;;;;771497;179;628338;-68
2022/07/14 13:07:59;;;;;;;4.80;2.77;;;;;;;;;;768758;181;634703;-65
2022/07/14 13:10:26;;;;;;;3.90;2.00;;;;;;;;;;772766;179;624688;-74
2022/07/14 13:12:51;;;;;;;6.07;2.17;;;;;;;;;;768931;181;640253;-66
2022/07/14 13:15:17;;;;;;;3.30;2.20;;;;;;;;;;770318;181;640120;-67
2022/07/14 13:17:49;;;;;;;6.83;2.83;;;;;;;;;;773245;180;674959;-73
2022/07/14 13:20:21;;;;;;;7.03;2.47;;;;;;;;;;776811;180;644051;-63
2022/07/14 13:22:47;;;;;;;4.30;2.30;;;;;;;;;;770372;181;635733;-60
2022/07/14 13:25:12;;;;;;;6.27;2.17;;;;;;;;;;768999;181;620066;-66
2022/07/14 13:27:38;;;;;;;3.63;1.70;;;;;;;;;;774205;180;632870;-65
2022/07/14 13:30:05;;;;;;;4.83;1.90;;;;;;;;;;770720;180;617260;-60
2022/07/14 13:32:30;;;;;;;3.20;2.20;;;;;;;;;;771380;179;623877;-62
2022/07/14 13:34:56;;;;;;;3.10;2.20;;;;;;;;;;770352;180;636870;-68
2022/07/14 13:37:22;;;;;;;6.50;1.80;;;;;;;;;;775472;179;624088;-57
2022/07/14 13:39:48;;;;;;;6.73;1.70;;;;;;;;;;775315;181;627484;-67
2022/07/14 13:42:14;;;;;;;3.33;1.60;;;;;;;;;;771957;179;653783;-69
2022/07/14 13:44:40;;;;;;;3.93;1.83;;;;;;;;;;775816;181;639291;-62
2022/07/14 13:47:06;;;;;;;5.10;1.90;;;;;;;;;;771307;178;670589;-66
2022/07/14 13:52:07;;;;;;;2.83;1.63;;;;;;;;;;770644;179;630958;-63
2022/07/14 13:54:29;;;;;;;2.83;1.87;;;;;;;;;;778730;180;743670;-66
2022/07/14 13:56:55;;;;;;;3.77;1.40;;;;;;;;;;771649;180;635490;-64
2022/07/14 13:59:21;;;;;;;3.60;1.87;;;;;;;;;;770049;179;916960;-60
2022/07/14 14:01:46;;;;;;;2.93;1.83;;;;;;;;;;774390;180;614232;-62
2022/07/14 14:04:12;;;;;;;4.50;1.63;;;;;;;;;;773212;179;715023;-64
2022/07/14 14:06:38;;;;;;;3.20;1.77;;;;;;;;;;772108;180;624678;-65
2022/07/14 14:09:04;;;;;;;3.40;1.50;;;;;;;;;;773709;179;643870;-61
2022/07/14 14:11:30;;;;;;;3.50;1.40;;;;;;;;;;772141;181;636690;-60
2022/07/14 14:13:56;;;;;;;3.40;1.40;;;;;;;;;;771950;180;646798;-60
2022/07/14 14:16:22;;;;;;;6.33;1.93;;;;;;;;;;769553;179;650896;-62
2022/07/14 14:18:48;;;;;;;5.20;1.63;;;;;;;;;;774651;180;623616;-58
2022/07/14 14:21:13;;;;;;;2.90;1.67;;;;;;;;;;770018;179;625335;-64
2022/07/14 14:23:39;;;;;;;3.67;1.73;;;;;;;;;;769053;179;645666;-64
2022/07/14 14:26:05;;;;;;;5.27;1.77;;;;;;;;;;775383;181;642898;-67
2022/07/14 14:28:31;;;;;;;4.87;1.77;;;;;;;;;;771198;179;739849;-64
2022/07/14 14:30:58;;;;;;;2.97;1.48;;;;;;;;;;771798;180;618564;-58
2022/07/14 14:33:24;;;;;;;4.73;1.60;;;;;;;;;;771820;180;918139;-63
2022/07/14 14:35:50;;;;;;;2.90;1.70;;;;;;;;;;771137;179;634064;-59